createdAt,value
2017-11-28T00:01:37.335Z,1.10
2017-11-28T00:04:05.586Z,1.20
2017-11-28T00:06:33.059Z,1.00
2017-11-28T00:09:01.303Z,0.90
2017-11-28T00:11:28.772Z,1.00
2017-11-28T00:14:02.203Z,0.97
2017-11-28T00:16:29.680Z,1.00
2017-11-28T00:19:00.980Z,1.03
2017-11-28T00:21:28.441Z,0.90
2017-11-28T00:23:55.926Z,0.90
2017-11-28T00:26:23.395Z,0.83
2017-11-28T00:28:50.892Z,0.80
2017-11-28T00:31:18.360Z,0.90
2017-11-28T00:33:45.868Z,1.00
2017-11-28T00:36:13.342Z,1.00
2017-11-28T00:38:40.829Z,1.00
2017-11-28T00:41:08.314Z,1.00
2017-11-28T00:43:36.565Z,1.30
2017-11-28T00:46:04.034Z,1.00
2017-11-28T00:48:31.519Z,1.00
2017-11-28T00:50:59.006Z,1.10
2017-11-28T00:53:26.502Z,1.00
2017-11-28T00:55:54.751Z,0.80
2017-11-28T00:58:22.242Z,1.10
2017-11-28T01:00:49.731Z,0.80
2017-11-28T01:03:17.229Z,0.90
2017-11-28T01:05:44.739Z,1.00
2017-11-28T01:08:12.989Z,1.00
2017-11-28T01:10:40.492Z,1.00
2017-11-28T01:13:07.974Z,1.07
2017-11-28T01:15:35.466Z,1.10
2017-11-28T01:18:03.698Z,0.90
2017-11-28T01:20:31.230Z,0.90
2017-11-28T01:22:58.719Z,0.80
2017-11-28T01:25:26.212Z,0.90
2017-11-28T01:27:53.689Z,1.00
2017-11-28T01:30:21.192Z,1.10
2017-11-28T01:32:48.702Z,1.10
2017-11-28T01:35:17.122Z,1.10
2017-11-28T01:37:44.591Z,1.20
2017-11-28T01:40:12.080Z,1.03
2017-11-28T01:42:39.564Z,1.73
2017-11-28T01:45:07.080Z,1.30
2017-11-28T01:47:35.676Z,1.43
2017-11-28T01:50:03.189Z,1.30
2017-11-28T01:52:30.675Z,1.50
2017-11-28T01:54:58.170Z,1.43
2017-11-28T01:57:26.423Z,1.70
2017-11-28T01:59:53.924Z,1.30
2017-11-28T02:02:21.403Z,1.30
2017-11-28T02:04:48.888Z,1.05
2017-11-28T02:07:16.874Z,1.23
2017-11-28T02:09:44.359Z,1.50
2017-11-28T02:12:12.616Z,1.50
2017-11-28T02:14:40.086Z,1.50
2017-11-28T02:17:08.352Z,1.40
2017-11-28T02:19:36.595Z,1.20
2017-11-28T02:22:04.093Z,1.50
2017-11-28T02:24:32.340Z,1.60
2017-11-28T02:26:59.924Z,1.77
2017-11-28T02:29:28.162Z,2.13
2017-11-28T02:31:55.676Z,1.57
2017-11-28T02:34:23.159Z,2.03
2017-11-28T02:36:50.660Z,1.50
2017-11-28T02:39:18.177Z,1.73
2017-11-28T02:41:45.683Z,1.70
2017-11-28T02:44:13.156Z,1.48
2017-11-28T02:46:41.415Z,1.90
2017-11-28T02:49:13.024Z,1.73
2017-11-28T02:51:40.523Z,1.43
2017-11-28T02:54:08.753Z,1.60
2017-11-28T02:56:36.242Z,2.00
2017-11-28T02:59:10.303Z,1.80
2017-11-28T03:01:38.598Z,1.80
2017-11-28T03:04:06.079Z,1.70
2017-11-28T03:06:33.575Z,1.57
2017-11-28T03:09:04.474Z,1.77
2017-11-28T03:11:31.964Z,1.50
2017-11-28T03:14:00.996Z,1.80
2017-11-28T03:16:28.483Z,2.00
2017-11-28T03:19:21.891Z,1.70
2017-11-28T03:21:51.123Z,1.90
2017-11-28T03:24:35.852Z,2.08
2017-11-28T03:27:04.112Z,1.93
2017-11-28T03:29:44.893Z,2.00
2017-11-28T03:32:12.388Z,1.70
2017-11-28T03:34:39.866Z,1.58
2017-11-28T03:37:07.358Z,1.77
2017-11-28T03:39:34.831Z,1.80
2017-11-28T03:42:03.127Z,1.60
2017-11-28T03:58:17.932Z,2.27
2017-11-28T04:00:45.436Z,1.70
2017-11-28T04:03:12.928Z,1.97
2017-11-28T04:05:40.411Z,2.10
2017-11-28T04:08:07.911Z,1.83
2017-11-28T04:10:35.734Z,1.90
2017-11-28T04:13:03.227Z,2.30
2017-11-28T04:15:31.470Z,2.43
2017-11-28T04:17:59.784Z,1.90
2017-11-28T04:20:27.229Z,2.10
2017-11-28T04:22:55.477Z,2.10
2017-11-28T04:25:22.959Z,2.23
2017-11-28T04:27:51.222Z,2.00
2017-11-28T04:30:18.720Z,2.00
2017-11-28T04:32:46.211Z,2.37
2017-11-28T04:35:13.686Z,2.17
2017-11-28T04:37:41.188Z,2.00
2017-11-28T04:40:08.663Z,2.10
2017-11-28T04:42:36.152Z,1.80
2017-11-28T04:45:03.633Z,2.20
2017-11-28T04:47:31.108Z,2.30
2017-11-28T04:49:59.367Z,1.97
2017-11-28T04:52:26.860Z,2.43
2017-11-28T04:54:54.338Z,2.22
2017-11-28T04:57:22.602Z,1.70
2017-11-28T04:59:50.115Z,2.00
2017-11-28T05:02:17.583Z,1.90
2017-11-28T05:04:45.835Z,2.13
2017-11-28T05:07:13.310Z,1.83
2017-11-28T05:09:40.800Z,1.97
2017-11-28T05:12:08.298Z,2.33
2017-11-28T05:14:35.781Z,1.80
2017-11-28T05:17:03.280Z,1.80
2017-11-28T05:19:30.769Z,1.97
2017-11-28T05:21:58.232Z,1.87
2017-11-28T05:24:25.719Z,1.90
2017-11-28T05:26:53.952Z,1.90
2017-11-28T05:29:21.470Z,1.83
2017-11-28T05:31:48.941Z,1.67
2017-11-28T05:34:17.208Z,1.90
2017-11-28T05:36:44.681Z,2.07
2017-11-28T05:39:12.169Z,1.90
2017-11-28T05:41:39.644Z,2.10
2017-11-28T05:44:07.138Z,1.40
2017-11-28T05:46:34.605Z,2.00
2017-11-28T05:49:02.120Z,1.63
2017-11-28T05:51:29.625Z,3.47
2017-11-28T05:53:57.125Z,1.90
2017-11-28T05:56:24.613Z,1.30
2017-11-28T05:58:52.854Z,1.60
2017-11-28T06:01:20.332Z,1.52
2017-11-28T06:03:47.827Z,1.83
2017-11-28T06:06:15.342Z,1.50
2017-11-28T06:08:42.830Z,1.77
2017-11-28T06:11:11.020Z,1.90
2017-11-28T06:13:39.410Z,1.70
2017-11-28T06:16:06.900Z,2.17
2017-11-28T06:18:34.400Z,1.80
2017-11-28T06:21:13.222Z,1.63
2017-11-28T06:23:41.464Z,1.50
2017-11-28T06:26:09.729Z,2.00
2017-11-28T06:28:37.213Z,1.57
2017-11-28T06:31:05.458Z,1.40
2017-11-28T06:33:32.933Z,1.62
2017-11-28T06:36:00.420Z,1.37
2017-11-28T06:38:28.659Z,1.30
2017-11-28T06:40:56.140Z,1.30
2017-11-28T06:43:24.374Z,1.00
2017-11-28T06:45:51.851Z,1.20
2017-11-28T06:48:19.322Z,1.80
2017-11-28T06:50:46.906Z,1.20
2017-11-28T06:53:15.150Z,1.00
2017-11-28T06:55:42.734Z,1.10
2017-11-28T06:58:10.968Z,1.10
2017-11-28T07:00:38.452Z,1.30
2017-11-28T07:03:11.866Z,1.10
2017-11-28T07:05:40.125Z,15.80
2017-11-28T07:08:07.615Z,4.57
2017-11-28T07:10:35.091Z,1.03
2017-11-28T07:13:02.570Z,1.00
2017-11-28T07:15:30.063Z,1.27
2017-11-28T07:17:58.350Z,1.00
2017-11-28T07:20:26.612Z,0.93
2017-11-28T07:22:54.874Z,1.00
2017-11-28T07:25:22.367Z,0.97
2017-11-28T07:27:50.624Z,1.20
2017-11-28T07:30:18.921Z,0.90
2017-11-28T07:32:47.198Z,1.10
2017-11-28T07:35:14.677Z,1.20
2017-11-28T07:37:42.179Z,1.00
2017-11-28T07:40:09.651Z,0.80
2017-11-28T07:42:37.899Z,0.90
2017-11-28T07:45:05.384Z,1.10
2017-11-28T07:47:33.642Z,1.10
2017-11-28T07:50:01.112Z,1.20
2017-11-28T07:52:28.616Z,1.60
2017-11-28T07:54:56.082Z,3.30
2017-11-28T07:57:23.592Z,32.20
2017-11-28T07:59:51.072Z,4.13
2017-11-28T08:02:18.541Z,1.20
2017-11-28T08:04:46.004Z,1.00
2017-11-28T08:07:13.495Z,0.90
2017-11-28T08:09:40.970Z,1.20
2017-11-28T08:12:08.468Z,1.27
2017-11-28T08:14:35.934Z,1.40
2017-11-28T08:17:03.442Z,1.40
2017-11-28T08:19:30.929Z,0.93
2017-11-28T08:21:59.204Z,1.10
2017-11-28T08:24:27.429Z,0.97
2017-11-28T08:26:54.939Z,1.00
2017-11-28T08:29:23.189Z,1.20
2017-11-28T08:31:50.677Z,0.97
2017-11-28T08:34:18.150Z,1.30
2017-11-28T08:36:45.627Z,1.40
2017-11-28T08:39:13.089Z,0.80
2017-11-28T08:41:40.548Z,0.90
2017-11-28T08:44:08.013Z,1.40
2017-11-28T08:46:35.487Z,0.97
2017-11-28T08:49:03.731Z,1.37
2017-11-28T08:51:31.217Z,1.10
2017-11-28T08:53:58.705Z,1.07
2017-11-28T08:56:26.945Z,1.20
2017-11-28T08:58:54.414Z,1.20
2017-11-28T09:01:23.399Z,0.87
2017-11-28T09:03:50.891Z,0.97
2017-11-28T09:06:19.130Z,1.90
2017-11-28T09:08:46.612Z,2.40
2017-11-28T09:11:14.873Z,1.10
2017-11-28T09:13:42.450Z,0.80
2017-11-28T09:16:10.705Z,4.10
2017-11-28T09:18:38.192Z,1.20
2017-11-28T09:21:06.443Z,0.87
2017-11-28T09:23:33.917Z,0.83
2017-11-28T09:26:02.140Z,0.80
2017-11-28T09:28:30.530Z,0.80
2017-11-28T09:30:58.002Z,0.82
2017-11-28T09:33:25.485Z,2.10
2017-11-28T09:35:53.719Z,2.30
2017-11-28T09:38:25.082Z,1.20
2017-11-28T09:40:52.573Z,0.88
2017-11-28T09:43:20.845Z,0.80
2017-11-28T09:45:49.087Z,0.80
2017-11-28T09:48:16.567Z,0.83
2017-11-28T09:50:45.529Z,1.20
2017-11-28T09:53:13.025Z,1.00
2017-11-28T09:55:42.280Z,0.80
2017-11-28T09:58:09.767Z,1.00
2017-11-28T10:00:37.230Z,1.30
2017-11-28T10:03:05.481Z,1.00
2017-11-28T10:05:32.951Z,0.90
2017-11-28T10:08:10.365Z,0.77
2017-11-28T10:10:37.822Z,0.93
2017-11-28T10:13:05.293Z,1.07
2017-11-28T10:15:33.537Z,0.97
2017-11-28T10:18:01.770Z,1.10
2017-11-28T10:20:29.262Z,1.60
2017-11-28T10:22:56.734Z,1.45
2017-11-28T10:25:24.970Z,1.13
2017-11-28T10:27:52.478Z,1.20
2017-11-28T10:30:20.735Z,1.10
2017-11-28T10:32:49.878Z,1.13
2017-11-28T10:35:17.713Z,1.00
2017-11-28T10:37:45.170Z,1.03
2017-11-28T10:40:12.644Z,0.80
2017-11-28T10:42:40.865Z,0.90
2017-11-28T10:45:08.357Z,0.80
2017-11-28T10:47:35.813Z,0.87
2017-11-28T10:50:03.303Z,0.60
2017-11-28T10:52:30.788Z,7.97
2017-11-28T10:54:58.418Z,1.27
2017-11-28T10:57:25.899Z,0.83
2017-11-28T10:59:53.369Z,1.10
2017-11-28T11:02:20.840Z,1.40
2017-11-28T11:04:48.328Z,1.70
2017-11-28T11:07:15.834Z,0.90
2017-11-28T11:09:43.361Z,1.00
2017-11-28T11:12:11.602Z,0.70
2017-11-28T11:14:39.092Z,0.90
2017-11-28T11:17:07.671Z,1.60
2017-11-28T11:19:35.129Z,0.70
2017-11-28T11:22:03.388Z,0.80
2017-11-28T11:24:31.650Z,0.80
2017-11-28T11:26:59.132Z,0.73
2017-11-28T11:29:27.369Z,1.00
2017-11-28T11:31:54.863Z,0.80
2017-11-28T11:34:22.337Z,0.80
2017-11-28T11:36:50.605Z,0.80
2017-11-28T11:39:18.841Z,0.77
2017-11-28T11:41:46.315Z,0.80
2017-11-28T11:44:13.786Z,0.80
2017-11-28T11:46:41.265Z,0.87
2017-11-28T11:49:09.498Z,0.80
2017-11-28T11:51:36.980Z,0.80
2017-11-28T11:54:05.234Z,0.80
2017-11-28T11:56:32.726Z,0.90
2017-11-28T11:59:00.959Z,1.00
2017-11-28T12:01:28.458Z,1.00
2017-11-28T12:03:57.241Z,0.80
2017-11-28T12:06:25.497Z,1.10
2017-11-28T12:08:52.950Z,0.90
2017-11-28T12:11:20.454Z,0.90
2017-11-28T12:13:47.933Z,0.90
2017-11-28T12:16:15.416Z,1.00
2017-11-28T12:18:42.897Z,0.90
2017-11-28T12:21:11.141Z,0.60
2017-11-28T12:23:38.625Z,1.20
2017-11-28T12:26:06.889Z,0.90
2017-11-28T12:28:34.353Z,1.10
2017-11-28T12:31:01.852Z,1.20
2017-11-28T12:33:29.318Z,0.70
2017-11-28T12:35:56.803Z,0.80
2017-11-28T12:38:24.297Z,0.90
2017-11-28T12:40:52.530Z,1.40
2017-11-28T12:46:12.955Z,0.97
2017-11-28T12:48:40.421Z,1.07
2017-11-28T12:51:07.919Z,0.90
2017-11-28T12:53:36.162Z,0.90
2017-11-28T12:56:03.625Z,0.90
2017-11-28T12:58:32.618Z,0.80
2017-11-28T13:01:00.084Z,0.80
2017-11-28T13:03:28.329Z,0.70
2017-11-28T13:05:55.789Z,0.80
2017-11-28T13:08:23.270Z,0.90
2017-11-28T13:10:50.734Z,0.87
2017-11-28T13:13:18.990Z,0.70
2017-11-28T13:15:46.465Z,0.70
2017-11-28T13:18:13.962Z,0.90
2017-11-28T13:20:41.433Z,0.80
2017-11-28T13:23:08.922Z,0.80
2017-11-28T13:25:36.397Z,0.97
2017-11-28T13:28:03.884Z,0.87
2017-11-28T13:30:31.365Z,1.00
2017-11-28T13:32:58.843Z,0.87
2017-11-28T13:35:26.325Z,0.70
2017-11-28T13:37:53.814Z,0.80
2017-11-28T13:40:21.272Z,0.80
2017-11-28T13:42:48.763Z,0.70
2017-11-28T13:45:16.231Z,0.87
2017-11-28T13:47:43.713Z,0.80
2017-11-28T13:50:11.174Z,0.80
2017-11-28T13:52:39.421Z,0.90
2017-11-28T13:55:06.885Z,1.57
2017-11-28T13:57:34.408Z,3.90
2017-11-28T14:00:01.871Z,1.10
2017-11-28T14:02:36.874Z,0.80
2017-11-28T14:05:05.153Z,0.80
2017-11-28T14:07:32.669Z,0.80
2017-11-28T14:10:00.139Z,0.77
2017-11-28T14:12:27.613Z,1.03
2017-11-28T14:14:55.864Z,0.87
2017-11-28T14:17:24.110Z,1.10
2017-11-28T14:19:57.361Z,1.00
2017-11-28T14:22:31.429Z,4.10
2017-11-28T14:25:00.531Z,0.90
2017-11-28T14:27:33.820Z,0.90
2017-11-28T14:30:01.315Z,1.13
2017-11-28T14:35:26.363Z,0.70
2017-11-28T14:37:53.879Z,1.50
2017-11-28T14:40:22.119Z,1.40
2017-11-28T14:56:31.420Z,1.10
2017-11-28T15:12:34.416Z,2.47
2017-11-28T15:15:07.644Z,1.40
2017-11-28T15:17:40.755Z,1.00
2017-11-28T15:33:34.212Z,1.70
2017-11-28T15:36:02.462Z,0.97
2017-11-28T15:38:29.934Z,1.00
2017-11-28T15:40:58.221Z,1.60
2017-11-28T15:43:26.464Z,2.97
2017-11-28T15:45:54.471Z,3.40
2017-11-28T15:48:21.936Z,3.30
2017-11-28T15:50:51.101Z,4.30
2017-11-28T15:53:18.589Z,2.97
2017-11-28T15:55:46.860Z,4.13
2017-11-28T15:58:15.121Z,4.27
2017-11-28T16:00:42.641Z,4.30
2017-11-28T16:03:10.112Z,1.47
2017-11-28T16:05:37.591Z,1.67
2017-11-28T16:08:05.065Z,3.23
2017-11-28T16:10:33.614Z,3.00
2017-11-28T16:13:02.605Z,3.60
2017-11-28T16:15:30.093Z,2.50
2017-11-28T16:17:58.325Z,2.57
2017-11-28T16:20:25.806Z,1.87
2017-11-28T16:22:53.271Z,16.90
2017-11-28T16:25:20.736Z,4.47
2017-11-28T16:27:48.973Z,3.00
2017-11-28T16:30:16.451Z,2.20
2017-11-28T16:32:45.445Z,3.30
2017-11-28T16:35:13.044Z,4.00
2017-11-28T16:37:40.516Z,3.90
2017-11-28T16:40:07.982Z,4.67
2017-11-28T16:42:35.454Z,5.53
2017-11-28T16:45:02.925Z,3.50
2017-11-28T16:47:30.419Z,4.32
2017-11-28T16:49:58.669Z,4.83
2017-11-28T16:52:26.145Z,6.57
2017-11-28T16:54:53.601Z,6.33
2017-11-28T16:57:21.082Z,4.90
2017-11-28T16:59:49.322Z,3.27
2017-11-28T17:02:16.815Z,4.33
2017-11-28T17:04:44.290Z,4.63
2017-11-28T17:07:11.788Z,5.70
2017-11-28T17:09:39.265Z,4.60
2017-11-28T17:12:06.782Z,3.90
2017-11-28T17:14:34.269Z,3.80
2017-11-28T17:17:01.734Z,3.20
2017-11-28T17:19:29.196Z,4.43
2017-11-28T17:21:56.685Z,3.40
2017-11-28T17:24:24.149Z,2.67
2017-11-28T17:26:51.645Z,3.50
2017-11-28T17:29:19.116Z,4.22
2017-11-28T17:31:46.624Z,7.12
2017-11-28T17:34:14.099Z,6.27
2017-11-28T17:36:41.597Z,6.00
2017-11-28T17:39:09.084Z,5.73
2017-11-28T17:41:36.571Z,4.40
2017-11-28T17:44:04.038Z,4.90
2017-11-28T17:46:31.542Z,5.73
2017-11-28T17:48:59.799Z,4.90
2017-11-28T17:51:27.274Z,5.50
2017-11-28T17:53:55.531Z,3.80
2017-11-28T17:56:22.997Z,4.23
2017-11-28T17:58:50.485Z,4.47
2017-11-28T18:01:17.946Z,4.50
2017-11-28T18:03:45.459Z,3.50
2017-11-28T18:06:13.708Z,3.23
2017-11-28T18:08:41.179Z,3.03
2017-11-28T18:11:08.649Z,4.27
2017-11-28T18:13:36.157Z,4.30
2017-11-28T18:16:03.618Z,3.58
2017-11-28T18:18:31.102Z,3.63
2017-11-28T18:20:58.590Z,4.00
2017-11-28T18:23:26.073Z,2.90
2017-11-28T18:25:53.558Z,3.13
2017-11-28T18:28:21.048Z,3.40
2017-11-28T18:30:48.515Z,4.00
2017-11-28T18:33:16.005Z,3.50
2017-11-28T18:35:44.235Z,3.77
2017-11-28T18:38:11.733Z,4.50
2017-11-28T18:40:40.046Z,4.40
2017-11-28T18:43:07.551Z,3.60
2017-11-28T18:45:35.015Z,4.77
2017-11-28T18:48:03.111Z,5.35
2017-11-28T18:50:30.581Z,5.03
2017-11-28T18:52:58.070Z,4.37
2017-11-28T18:55:25.536Z,4.23
2017-11-28T18:57:53.790Z,4.60
2017-11-28T19:00:21.254Z,4.53
2017-11-28T19:02:48.738Z,5.30
2017-11-28T19:05:16.700Z,4.90
2017-11-28T19:07:44.185Z,4.90
2017-11-28T19:10:12.433Z,4.20
2017-11-28T19:12:39.912Z,5.67
2017-11-28T19:15:07.390Z,4.50
2017-11-28T19:17:35.672Z,5.20
2017-11-28T19:20:03.160Z,5.17
2017-11-28T19:22:30.621Z,5.00
2017-11-28T19:24:58.112Z,5.10
2017-11-28T19:27:25.605Z,5.87
2017-11-28T19:29:53.140Z,6.60
2017-11-28T19:32:21.405Z,7.80
2017-11-28T19:34:49.673Z,8.30
2017-11-28T19:37:17.145Z,6.77
2017-11-28T19:39:45.404Z,6.50
2017-11-28T19:42:12.893Z,8.30
2017-11-28T19:44:41.147Z,6.57
2017-11-28T19:47:08.716Z,6.80
2017-11-28T19:49:36.189Z,6.60
2017-11-28T19:52:04.436Z,5.50
2017-11-28T19:54:34.621Z,5.47
2017-11-28T19:57:02.111Z,5.53
2017-11-28T19:59:29.589Z,5.30
2017-11-28T20:01:57.874Z,6.03
2017-11-28T20:04:26.120Z,5.50
2017-11-28T20:06:53.579Z,6.20
2017-11-28T20:09:22.578Z,8.10
2017-11-28T20:11:50.053Z,7.83
2017-11-28T20:14:18.305Z,6.53
2017-11-28T20:16:46.544Z,6.13
2017-11-28T20:19:14.005Z,5.50
2017-11-28T20:21:41.499Z,7.17
2017-11-28T20:24:09.743Z,6.97
2017-11-28T20:26:37.229Z,6.27
2017-11-28T20:29:04.752Z,5.80
2017-11-28T20:31:32.242Z,6.07
2017-11-28T20:33:59.739Z,6.73
2017-11-28T20:36:27.969Z,6.93
2017-11-28T20:38:55.446Z,6.80
2017-11-28T20:41:22.931Z,7.33
2017-11-28T20:43:50.456Z,6.40
2017-11-28T20:46:17.951Z,6.32
2017-11-28T20:48:45.402Z,7.53
2017-11-28T20:51:12.897Z,6.73
2017-11-28T20:53:40.425Z,5.93
2017-11-28T20:56:07.926Z,7.50
2017-11-28T20:58:35.428Z,7.17
2017-11-28T21:01:03.693Z,8.70
2017-11-28T21:03:31.934Z,6.70
2017-11-28T21:05:59.413Z,7.10
2017-11-28T21:08:28.394Z,8.03
2017-11-28T21:10:56.669Z,6.97
2017-11-28T21:13:24.138Z,6.90
2017-11-28T21:15:51.627Z,5.60
2017-11-28T21:18:19.857Z,7.20
2017-11-28T21:20:47.364Z,5.37
2017-11-28T21:23:15.585Z,5.60
2017-11-28T21:25:43.852Z,5.50
2017-11-28T21:28:11.342Z,6.07
2017-11-28T21:30:38.820Z,5.67
2017-11-28T21:33:07.053Z,5.13
2017-11-28T21:35:34.647Z,4.80
2017-11-28T21:38:02.116Z,5.80
2017-11-28T21:40:30.357Z,5.70
2017-11-28T21:42:57.858Z,6.00
2017-11-28T21:45:26.091Z,6.80
2017-11-28T21:47:53.585Z,5.80
2017-11-28T21:50:21.822Z,4.90
2017-11-28T21:52:49.305Z,5.20
2017-11-28T21:55:17.557Z,4.90
2017-11-28T21:57:46.558Z,6.13
2017-11-28T22:00:14.799Z,4.40
2017-11-28T22:02:42.276Z,4.70
2017-11-28T22:05:09.836Z,4.97
2017-11-28T22:07:37.329Z,5.20
2017-11-28T22:10:05.598Z,5.60
2017-11-28T22:12:33.853Z,4.70
2017-11-28T22:15:01.365Z,5.90
2017-11-28T22:17:28.852Z,4.82
2017-11-28T22:19:56.329Z,6.37
2017-11-28T22:22:23.820Z,5.10
2017-11-28T22:24:52.079Z,5.23
2017-11-28T22:27:19.569Z,3.93
2017-11-28T22:29:48.498Z,4.07
2017-11-28T22:32:15.989Z,4.70
2017-11-28T22:34:43.478Z,4.90
2017-11-28T22:37:10.949Z,3.90
2017-11-28T22:39:38.415Z,5.60
2017-11-28T22:42:05.894Z,4.57
2017-11-28T22:44:33.366Z,4.10
2017-11-28T22:47:00.855Z,4.77
2017-11-28T22:49:29.106Z,4.80
2017-11-28T22:51:56.634Z,4.20
2017-11-28T22:54:24.103Z,4.27
2017-11-28T22:56:58.360Z,4.20
2017-11-28T22:59:26.602Z,4.50
2017-11-28T23:01:54.097Z,5.27
2017-11-28T23:04:25.690Z,4.40
2017-11-28T23:06:53.173Z,5.13
2017-11-28T23:09:20.649Z,4.97
2017-11-28T23:11:49.081Z,5.03
2017-11-28T23:14:28.429Z,4.80
2017-11-28T23:16:55.930Z,4.63
2017-11-28T23:19:24.186Z,4.70
2017-11-28T23:21:51.677Z,4.82
2017-11-28T23:24:19.929Z,4.40
2017-11-28T23:26:47.533Z,4.90
2017-11-28T23:29:15.023Z,5.60
2017-11-28T23:31:42.487Z,5.67
2017-11-28T23:34:09.970Z,5.67
2017-11-28T23:36:38.197Z,5.63
2017-11-28T23:39:05.677Z,5.77
2017-11-28T23:41:33.152Z,4.90
2017-11-28T23:44:00.644Z,4.90
2017-11-28T23:46:28.104Z,5.60
2017-11-28T23:48:55.561Z,4.97
2017-11-28T23:51:23.029Z,5.70
2017-11-28T23:53:50.521Z,5.30
2017-11-28T23:56:17.981Z,5.87
2017-11-28T23:58:45.461Z,5.50
